createdAt,value
2019-03-06T00:02:26.162Z,4.80
2019-03-06T00:04:56.565Z,4.80
2019-03-06T00:07:27.026Z,4.90
2019-03-06T00:09:57.161Z,5.00
2019-03-06T00:12:27.104Z,5.10
2019-03-06T00:14:57.403Z,5.00
2019-03-06T00:17:27.408Z,4.90
2019-03-06T00:19:57.792Z,5.00
2019-03-06T00:22:28.535Z,4.80
2019-03-06T00:24:58.815Z,4.80
2019-03-06T00:27:28.919Z,4.80
2019-03-06T00:29:59.351Z,4.90
2019-03-06T00:32:29.368Z,4.90
2019-03-06T00:35:01.865Z,4.90
2019-03-06T00:37:31.877Z,4.80
2019-03-06T00:40:20.845Z,4.80
2019-03-06T00:42:51.559Z,4.70
2019-03-06T00:45:21.324Z,4.80
2019-03-06T00:47:50.984Z,5.00
2019-03-06T00:50:21.058Z,5.20
2019-03-06T00:52:51.719Z,5.20
2019-03-06T00:55:22.195Z,5.10
2019-03-06T00:57:52.581Z,5.10
2019-03-06T01:00:23.948Z,5.00
2019-03-06T01:02:53.558Z,5.00
2019-03-06T01:05:24.473Z,4.90
2019-03-06T01:07:54.807Z,4.80
2019-03-06T01:10:25.125Z,4.70
2019-03-06T01:12:55.379Z,4.60
2019-03-06T01:15:25.130Z,4.40
2019-03-06T01:17:55.272Z,4.20
2019-03-06T01:20:25.703Z,4.10
2019-03-06T01:22:56.058Z,4.10
2019-03-06T01:25:26.620Z,4.20
2019-03-06T01:27:56.666Z,4.50
2019-03-06T01:30:26.360Z,4.90
2019-03-06T01:33:02.322Z,5.10
2019-03-06T01:35:57.537Z,5.30
2019-03-06T01:38:47.327Z,5.30
2019-03-06T01:41:26.434Z,5.30
2019-03-06T01:44:00.787Z,5.30
2019-03-06T01:46:30.859Z,5.30
2019-03-06T01:49:01.545Z,5.40
2019-03-06T01:51:32.175Z,5.40
2019-03-06T01:54:02.639Z,5.40
2019-03-06T01:56:32.957Z,5.50
2019-03-06T01:59:03.223Z,5.40
2019-03-06T02:01:33.956Z,5.40
2019-03-06T02:04:04.655Z,5.30
2019-03-06T02:06:35.781Z,5.40
2019-03-06T02:09:09.257Z,5.40
2019-03-06T02:11:39.059Z,5.40
2019-03-06T02:14:08.653Z,5.40
2019-03-06T02:16:38.614Z,5.50
2019-03-06T02:19:09.273Z,5.30
2019-03-06T02:21:39.304Z,5.20
2019-03-06T02:24:10.006Z,5.20
2019-03-06T02:26:40.179Z,5.20
2019-03-06T02:29:10.594Z,5.20
2019-03-06T02:31:40.602Z,5.30
2019-03-06T02:34:10.936Z,5.20
2019-03-06T02:36:41.056Z,5.40
2019-03-06T02:39:11.302Z,5.50
2019-03-06T02:41:42.000Z,5.50
2019-03-06T02:44:12.495Z,5.50
2019-03-06T02:46:42.422Z,5.50
2019-03-06T02:49:12.743Z,5.50
2019-03-06T02:51:43.260Z,5.50
2019-03-06T02:54:13.312Z,5.40
2019-03-06T02:56:43.704Z,5.40
2019-03-06T02:59:32.603Z,5.50
2019-03-06T03:02:16.349Z,5.40
2019-03-06T03:04:55.787Z,5.40
2019-03-06T03:07:26.336Z,5.40
2019-03-06T03:09:56.640Z,5.40
2019-03-06T03:12:27.020Z,5.40
2019-03-06T03:14:57.083Z,5.50
2019-03-06T03:17:26.714Z,5.50
2019-03-06T03:19:56.795Z,5.50
2019-03-06T03:22:27.156Z,5.50
2019-03-06T03:24:57.530Z,5.50
2019-03-06T03:27:27.959Z,5.60
2019-03-06T03:29:58.413Z,5.60
2019-03-06T03:32:28.834Z,5.60
2019-03-06T03:34:58.861Z,5.60
2019-03-06T03:37:47.963Z,5.60
2019-03-06T03:40:18.415Z,5.60
2019-03-06T03:42:48.769Z,5.60
2019-03-06T03:45:19.080Z,5.60
2019-03-06T03:47:49.589Z,5.60
2019-03-06T03:50:20.369Z,5.60
2019-03-06T03:52:50.696Z,5.60
2019-03-06T03:55:21.036Z,5.70
2019-03-06T03:57:51.932Z,5.60
2019-03-06T04:00:22.370Z,5.60
2019-03-06T04:02:52.991Z,5.60
2019-03-06T04:05:22.984Z,5.60
2019-03-06T04:07:53.459Z,5.60
2019-03-06T04:10:24.099Z,5.60
2019-03-06T04:12:54.518Z,5.60
2019-03-06T04:15:24.832Z,5.60
2019-03-06T04:17:54.851Z,5.60
2019-03-06T04:20:25.385Z,5.70
2019-03-06T04:22:55.774Z,5.70
2019-03-06T04:25:25.468Z,5.60
2019-03-06T04:27:55.800Z,5.60
2019-03-06T04:30:25.354Z,5.60
2019-03-06T04:32:55.758Z,5.70
2019-03-06T04:35:26.080Z,5.70
2019-03-06T04:37:56.117Z,5.80
2019-03-06T04:40:26.519Z,5.80
2019-03-06T04:42:57.228Z,5.70
2019-03-06T04:45:27.879Z,5.80
2019-03-06T04:47:57.813Z,5.90
2019-03-06T04:50:31.188Z,5.90
2019-03-06T04:53:01.499Z,5.80
2019-03-06T04:55:31.815Z,5.80
2019-03-06T04:58:02.261Z,5.80
2019-03-06T05:00:32.939Z,5.80
2019-03-06T05:03:02.607Z,5.90
2019-03-06T05:05:32.915Z,5.80
2019-03-06T05:08:03.265Z,5.70
2019-03-06T05:10:33.187Z,5.80
2019-03-06T05:13:03.513Z,5.80
2019-03-06T05:15:33.538Z,5.90
2019-03-06T05:18:31.484Z,5.90
2019-03-06T05:21:01.979Z,5.90
2019-03-06T05:23:32.662Z,5.80
2019-03-06T05:26:03.386Z,5.80
2019-03-06T05:28:33.487Z,5.70
2019-03-06T05:31:03.453Z,5.70
2019-03-06T05:33:33.504Z,5.70
2019-03-06T05:36:47.023Z,5.70
2019-03-06T05:39:17.041Z,5.70
2019-03-06T05:41:47.964Z,5.70
2019-03-06T05:44:18.358Z,5.70
2019-03-06T05:46:48.723Z,5.70
2019-03-06T05:49:19.211Z,5.60
2019-03-06T05:51:49.506Z,5.70
2019-03-06T05:54:19.666Z,5.70
2019-03-06T05:56:50.943Z,5.70
2019-03-06T05:59:20.825Z,5.60
2019-03-06T06:01:51.118Z,5.60
2019-03-06T06:04:22.304Z,5.60
2019-03-06T06:06:52.674Z,5.50
2019-03-06T06:09:22.371Z,5.60
2019-03-06T06:11:52.682Z,5.60
2019-03-06T06:14:23.006Z,5.60
2019-03-06T06:16:55.557Z,5.70
2019-03-06T06:19:25.872Z,5.70
2019-03-06T06:22:21.085Z,5.60
2019-03-06T06:24:51.461Z,5.50
2019-03-06T06:27:21.750Z,5.70
2019-03-06T06:29:52.507Z,5.80
2019-03-06T06:32:22.567Z,6.00
2019-03-06T06:34:53.279Z,6.10
2019-03-06T06:37:23.351Z,6.10
2019-03-06T06:39:53.662Z,6.30
2019-03-06T06:42:24.423Z,6.30
2019-03-06T06:44:54.110Z,6.40
2019-03-06T06:47:24.477Z,6.50
2019-03-06T06:49:54.837Z,6.80
2019-03-06T06:53:26.864Z,7.20
2019-03-06T06:56:20.248Z,7.30
2019-03-06T06:59:04.124Z,7.30
2019-03-06T07:02:35.590Z,7.20
2019-03-06T07:05:31.267Z,7.20
2019-03-06T07:08:23.551Z,7.30
2019-03-06T07:11:22.246Z,7.20
2019-03-06T07:14:10.379Z,7.30
2019-03-06T07:16:57.620Z,7.20
2019-03-06T07:19:35.086Z,7.30
2019-03-06T07:22:13.905Z,7.40
2019-03-06T07:25:02.470Z,7.40
2019-03-06T07:27:50.196Z,7.40
2019-03-06T07:30:42.145Z,7.40
2019-03-06T07:33:31.103Z,7.50
2019-03-06T07:36:20.359Z,7.60
2019-03-06T07:38:54.260Z,7.70
2019-03-06T07:41:52.030Z,7.80
2019-03-06T07:44:34.946Z,7.80
2019-03-06T07:47:20.960Z,7.80
2019-03-06T07:50:15.137Z,7.90
2019-03-06T07:53:18.950Z,7.90
2019-03-06T07:56:14.037Z,8.00
2019-03-06T07:58:57.489Z,8.10
2019-03-06T08:01:29.609Z,8.20
2019-03-06T08:04:03.137Z,8.20
2019-03-06T08:06:33.589Z,8.30
2019-03-06T08:09:04.260Z,8.40
2019-03-06T08:11:51.510Z,8.40
2019-03-06T08:14:59.212Z,8.50
2019-03-06T08:17:46.641Z,8.50
2019-03-06T08:20:38.922Z,8.60
2019-03-06T08:23:20.779Z,8.50
2019-03-06T08:25:51.522Z,8.50
2019-03-06T08:28:21.129Z,8.60
2019-03-06T08:30:54.870Z,8.70
2019-03-06T08:33:25.858Z,8.70
2019-03-06T08:35:56.580Z,8.70
2019-03-06T08:38:26.215Z,8.90
2019-03-06T08:41:03.926Z,8.90
2019-03-06T08:43:28.376Z,8.90
2019-03-06T08:46:23.419Z,8.90
2019-03-06T08:49:03.131Z,9.00
2019-03-06T08:51:48.966Z,9.10
2019-03-06T08:54:33.680Z,9.20
2019-03-06T08:57:14.859Z,9.20
2019-03-06T09:00:01.276Z,9.30
2019-03-06T09:02:47.555Z,9.40
2019-03-06T09:05:39.491Z,9.50
2019-03-06T09:08:31.157Z,9.60
2019-03-06T09:11:10.153Z,9.70
2019-03-06T09:14:14.671Z,9.90
2019-03-06T09:17:09.681Z,9.90
2019-03-06T09:19:48.808Z,9.90
2019-03-06T09:22:43.319Z,10.10
2019-03-06T09:25:27.639Z,10.20
2019-03-06T09:28:18.537Z,10.30
2019-03-06T09:30:56.852Z,10.30
2019-03-06T09:33:35.539Z,10.40
2019-03-06T09:36:36.588Z,10.40
2019-03-06T09:39:23.602Z,10.50
2019-03-06T09:42:12.922Z,10.60
2019-03-06T09:45:00.980Z,10.60
2019-03-06T09:47:38.355Z,10.60
2019-03-06T09:50:27.097Z,10.80
2019-03-06T09:53:15.025Z,10.90
2019-03-06T09:56:03.073Z,11.00
2019-03-06T09:59:04.632Z,11.10
2019-03-06T10:01:39.790Z,11.20
2019-03-06T10:04:29.554Z,11.40
2019-03-06T10:07:30.623Z,11.50
2019-03-06T10:10:12.739Z,11.60
2019-03-06T10:12:49.483Z,11.80
2019-03-06T10:15:47.337Z,11.90
2019-03-06T10:18:30.779Z,11.90
2019-03-06T10:21:01.008Z,12.00
2019-03-06T10:23:31.495Z,12.20
2019-03-06T10:26:01.585Z,12.20
2019-03-06T10:28:31.681Z,12.30
2019-03-06T10:31:02.876Z,12.40
2019-03-06T10:33:32.886Z,12.50
2019-03-06T10:36:03.676Z,12.50
2019-03-06T10:38:34.084Z,12.50
2019-03-06T10:41:04.203Z,12.70
2019-03-06T10:43:34.626Z,12.70
2019-03-06T10:46:05.165Z,12.70
2019-03-06T10:48:35.943Z,12.60
2019-03-06T10:51:05.783Z,12.60
2019-03-06T10:56:08.597Z,12.60
2019-03-06T10:58:38.648Z,12.70
2019-03-06T11:01:09.246Z,12.70
2019-03-06T11:03:43.606Z,12.90
2019-03-06T11:06:14.639Z,13.00
2019-03-06T11:08:44.744Z,13.00
2019-03-06T11:11:16.705Z,13.00
2019-03-06T11:13:46.787Z,13.20
2019-03-06T11:16:18.136Z,13.20
2019-03-06T11:18:47.958Z,13.40
2019-03-06T11:21:18.099Z,13.40
2019-03-06T11:23:48.400Z,13.30
2019-03-06T11:26:19.281Z,13.30
2019-03-06T11:28:50.355Z,13.20
2019-03-06T11:31:20.463Z,13.20
2019-03-06T11:33:50.931Z,13.20
2019-03-06T11:36:21.345Z,13.10
2019-03-06T11:38:51.035Z,13.20
2019-03-06T11:41:21.405Z,13.00
2019-03-06T11:43:51.550Z,13.20
2019-03-06T11:46:21.947Z,13.20
2019-03-06T11:48:51.719Z,13.30
2019-03-06T11:51:21.444Z,13.40
2019-03-06T11:53:51.188Z,13.60
2019-03-06T11:56:21.237Z,13.50
2019-03-06T11:58:51.973Z,13.40
2019-03-06T12:01:24.392Z,13.60
2019-03-06T12:03:54.839Z,13.70
2019-03-06T12:06:24.854Z,13.80
2019-03-06T12:08:55.363Z,13.60
2019-03-06T12:11:26.494Z,13.50
2019-03-06T12:13:56.572Z,13.60
2019-03-06T12:16:27.159Z,13.60
2019-03-06T12:18:57.187Z,13.50
2019-03-06T12:21:28.095Z,13.50
2019-03-06T12:23:58.654Z,13.60
2019-03-06T12:26:28.862Z,13.80
2019-03-06T12:28:58.950Z,13.90
2019-03-06T12:31:29.219Z,13.90
2019-03-06T12:33:59.404Z,13.80
2019-03-06T12:36:29.102Z,13.90
2019-03-06T12:38:59.657Z,14.00
2019-03-06T12:41:30.985Z,14.20
2019-03-06T12:44:10.189Z,14.40
2019-03-06T12:46:33.750Z,14.70
2019-03-06T12:49:06.400Z,14.70
2019-03-06T12:51:37.693Z,14.80
2019-03-06T12:54:09.629Z,14.70
2019-03-06T12:56:40.383Z,14.80
2019-03-06T12:59:11.151Z,14.90
2019-03-06T13:01:41.498Z,14.80
2019-03-06T13:04:11.888Z,14.90
2019-03-06T13:06:42.290Z,14.90
2019-03-06T13:09:17.311Z,14.80
2019-03-06T13:11:47.703Z,14.70
2019-03-06T13:14:17.176Z,14.60
2019-03-06T13:16:47.866Z,14.60
2019-03-06T13:19:17.634Z,14.60
2019-03-06T13:21:47.396Z,14.70
2019-03-06T13:24:17.701Z,14.80
2019-03-06T13:26:47.778Z,14.80
2019-03-06T13:29:17.417Z,14.90
2019-03-06T13:31:48.201Z,14.90
2019-03-06T13:34:25.854Z,14.80
2019-03-06T13:36:56.416Z,14.60
2019-03-06T13:39:26.739Z,14.60
2019-03-06T13:41:57.310Z,14.50
2019-03-06T13:44:27.773Z,14.60
2019-03-06T13:46:58.689Z,14.60
2019-03-06T13:49:28.926Z,14.70
2019-03-06T13:51:58.836Z,14.70
2019-03-06T13:54:29.367Z,14.70
2019-03-06T13:56:59.506Z,14.70
2019-03-06T13:59:29.880Z,14.80
2019-03-06T14:01:59.647Z,14.80
2019-03-06T14:04:30.940Z,14.90
2019-03-06T14:07:01.092Z,15.00
2019-03-06T14:09:30.987Z,14.90
2019-03-06T14:12:00.673Z,14.90
2019-03-06T14:14:31.238Z,15.00
2019-03-06T14:17:01.074Z,15.10
2019-03-06T14:19:30.880Z,15.20
2019-03-06T14:22:01.570Z,15.10
2019-03-06T14:24:32.411Z,15.10
2019-03-06T14:27:31.267Z,15.10
2019-03-06T14:30:05.047Z,14.90
2019-03-06T14:32:35.820Z,14.90
2019-03-06T14:35:07.338Z,14.80
2019-03-06T14:37:38.439Z,14.70
2019-03-06T14:40:15.630Z,14.70
2019-03-06T14:42:45.880Z,14.70
2019-03-06T14:45:16.791Z,14.80
2019-03-06T14:47:47.359Z,14.80
2019-03-06T14:50:17.476Z,14.70
2019-03-06T14:52:47.943Z,14.60
2019-03-06T14:55:18.094Z,14.50
2019-03-06T14:57:48.229Z,14.50
2019-03-06T15:00:19.953Z,14.50
2019-03-06T15:02:50.375Z,14.40
2019-03-06T15:05:21.066Z,14.40
2019-03-06T15:07:52.206Z,14.40
2019-03-06T15:10:22.715Z,14.40
2019-03-06T15:12:52.728Z,14.40
2019-03-06T15:15:22.843Z,14.30
2019-03-06T15:17:52.862Z,14.30
2019-03-06T15:20:23.817Z,14.30
2019-03-06T15:22:53.941Z,14.20
2019-03-06T15:25:24.218Z,14.10
2019-03-06T15:27:55.144Z,14.10
2019-03-06T15:30:25.324Z,14.00
2019-03-06T15:32:55.017Z,14.00
2019-03-06T15:35:25.650Z,14.10
2019-03-06T15:37:56.073Z,14.00
2019-03-06T15:40:27.656Z,13.90
2019-03-06T15:42:57.724Z,13.80
2019-03-06T15:45:29.814Z,13.70
2019-03-06T15:48:00.404Z,13.70
2019-03-06T15:50:31.238Z,13.70
2019-03-06T15:53:00.980Z,13.60
2019-03-06T15:55:31.499Z,13.50
2019-03-06T15:58:02.050Z,13.50
2019-03-06T16:00:46.355Z,13.40
2019-03-06T16:03:11.528Z,13.40
2019-03-06T16:05:42.038Z,13.40
2019-03-06T16:08:13.274Z,13.30
2019-03-06T16:10:43.892Z,13.30
2019-03-06T16:13:14.126Z,13.20
2019-03-06T16:15:44.174Z,13.20
2019-03-06T16:18:14.370Z,13.20
2019-03-06T16:20:44.732Z,13.10
2019-03-06T16:23:15.959Z,13.10
2019-03-06T16:25:45.810Z,13.00
2019-03-06T16:28:16.789Z,13.10
2019-03-06T16:30:46.593Z,13.10
2019-03-06T16:33:17.631Z,13.00
2019-03-06T16:35:51.027Z,13.00
2019-03-06T16:38:21.256Z,12.90
2019-03-06T16:40:51.788Z,12.80
2019-03-06T16:43:22.645Z,12.70
2019-03-06T16:45:53.277Z,12.60
2019-03-06T16:48:23.887Z,12.50
2019-03-06T16:50:54.321Z,12.50
2019-03-06T16:53:24.397Z,12.40
2019-03-06T16:55:54.446Z,12.30
2019-03-06T16:58:24.285Z,12.20
2019-03-06T17:00:55.443Z,12.20
2019-03-06T17:03:24.989Z,12.20
2019-03-06T17:05:55.642Z,12.10
2019-03-06T17:08:26.067Z,12.00
2019-03-06T17:10:56.442Z,11.80
2019-03-06T17:13:26.942Z,11.60
2019-03-06T17:15:57.655Z,11.40
2019-03-06T17:18:27.374Z,11.50
2019-03-06T17:20:57.928Z,11.40
2019-03-06T17:23:28.059Z,11.30
2019-03-06T17:25:58.936Z,11.20
2019-03-06T17:28:28.933Z,11.20
2019-03-06T17:30:59.292Z,11.40
2019-03-06T17:33:30.116Z,11.30
2019-03-06T17:36:01.052Z,11.30
2019-03-06T17:38:31.130Z,11.20
2019-03-06T17:41:01.808Z,11.10
2019-03-06T17:43:32.595Z,11.00
2019-03-06T17:46:03.282Z,11.10
2019-03-06T17:48:33.115Z,11.00
2019-03-06T17:51:02.805Z,11.00
2019-03-06T17:53:33.283Z,11.10
2019-03-06T17:56:04.692Z,11.10
2019-03-06T17:58:35.620Z,11.20
2019-03-06T18:01:09.576Z,11.20
2019-03-06T18:03:51.357Z,11.20
2019-03-06T18:06:20.233Z,11.00
2019-03-06T18:08:50.828Z,10.90
2019-03-06T18:11:20.658Z,10.80
2019-03-06T18:13:50.888Z,10.80
2019-03-06T18:16:21.514Z,10.80
2019-03-06T18:18:52.159Z,11.00
2019-03-06T18:21:22.567Z,11.10
2019-03-06T18:23:52.172Z,11.00
2019-03-06T18:26:22.676Z,11.00
2019-03-06T18:28:52.448Z,10.90
2019-03-06T18:31:22.976Z,10.80
2019-03-06T18:33:53.767Z,10.70
2019-03-06T18:36:24.121Z,10.80
2019-03-06T18:38:54.354Z,10.70
2019-03-06T18:41:25.176Z,10.50
2019-03-06T18:43:55.298Z,10.40
2019-03-06T18:46:25.751Z,10.40
2019-03-06T18:48:56.274Z,10.60
2019-03-06T18:51:26.904Z,10.70
2019-03-06T18:53:56.696Z,10.80
2019-03-06T18:56:27.235Z,10.70
2019-03-06T18:58:59.003Z,10.90
2019-03-06T19:01:29.821Z,11.00
2019-03-06T19:03:59.931Z,11.20
2019-03-06T19:06:30.158Z,11.30
2019-03-06T19:09:00.871Z,11.50
2019-03-06T19:11:31.138Z,11.80
2019-03-06T19:14:01.801Z,11.80
2019-03-06T19:16:31.959Z,11.70
2019-03-06T19:19:02.408Z,11.70
2019-03-06T19:21:33.094Z,11.60
2019-03-06T19:24:03.675Z,11.50
2019-03-06T19:26:33.637Z,11.60
2019-03-06T19:29:05.474Z,11.60
2019-03-06T19:31:36.069Z,11.40
2019-03-06T19:34:06.079Z,11.30
2019-03-06T19:36:36.211Z,11.40
2019-03-06T19:39:07.644Z,11.40
2019-03-06T19:41:38.388Z,11.50
2019-03-06T19:44:08.511Z,11.50
2019-03-06T19:46:38.989Z,11.40
2019-03-06T19:49:09.519Z,11.40
2019-03-06T19:51:40.311Z,11.40
2019-03-06T19:54:10.117Z,11.40
2019-03-06T19:56:40.284Z,11.30
2019-03-06T19:59:10.374Z,11.40
2019-03-06T20:01:40.572Z,11.30
2019-03-06T20:04:10.891Z,11.30
2019-03-06T20:06:41.199Z,11.20
2019-03-06T20:09:26.182Z,11.20
2019-03-06T20:11:56.327Z,11.20
2019-03-06T20:14:26.427Z,11.20
2019-03-06T20:16:56.853Z,11.20
2019-03-06T20:19:28.682Z,11.30
2019-03-06T20:21:58.819Z,11.20
2019-03-06T20:24:28.858Z,11.20
2019-03-06T20:26:59.302Z,11.10
2019-03-06T20:29:29.900Z,11.10
2019-03-06T20:32:00.784Z,11.30
2019-03-06T20:34:31.687Z,11.30
2019-03-06T20:37:02.474Z,11.30
2019-03-06T20:39:32.741Z,11.50
2019-03-06T20:42:03.147Z,11.40
2019-03-06T20:44:33.713Z,11.50
2019-03-06T20:47:04.668Z,11.60
2019-03-06T20:49:35.133Z,11.70
2019-03-06T20:52:05.643Z,11.70
2019-03-06T20:54:36.153Z,11.70
2019-03-06T20:57:06.715Z,11.60
2019-03-06T20:59:36.864Z,11.70
2019-03-06T21:02:06.766Z,11.80
2019-03-06T21:04:37.192Z,11.90
2019-03-06T21:07:08.245Z,11.90
2019-03-06T21:09:39.051Z,11.90
2019-03-06T21:12:09.504Z,11.80
2019-03-06T21:14:39.810Z,11.80
2019-03-06T21:17:09.638Z,11.80
2019-03-06T21:19:40.563Z,11.90
2019-03-06T21:22:10.082Z,11.90
2019-03-06T21:24:40.318Z,11.90
2019-03-06T21:27:11.312Z,11.80
2019-03-06T21:29:42.136Z,11.70
2019-03-06T21:32:12.407Z,11.80
2019-03-06T21:34:42.228Z,11.70
2019-03-06T21:37:12.690Z,11.70
2019-03-06T21:39:42.457Z,11.70
2019-03-06T21:42:12.776Z,11.70
2019-03-06T21:44:43.837Z,11.90
2019-03-06T21:47:14.448Z,11.90
2019-03-06T21:49:44.697Z,11.80
2019-03-06T21:52:14.500Z,11.80
2019-03-06T21:54:44.857Z,11.90
2019-03-06T21:57:15.728Z,11.80
2019-03-06T21:59:45.898Z,11.80
2019-03-06T22:02:16.746Z,12.00
2019-03-06T22:04:46.825Z,11.90
2019-03-06T22:07:17.333Z,11.70
2019-03-06T22:09:47.771Z,11.50
2019-03-06T22:12:18.358Z,11.60
2019-03-06T22:14:48.443Z,11.70
2019-03-06T22:17:19.187Z,11.70
2019-03-06T22:19:49.167Z,11.80
2019-03-06T22:22:19.319Z,11.80
2019-03-06T22:24:50.056Z,11.80
2019-03-06T22:27:20.817Z,11.70
2019-03-06T22:29:50.783Z,11.70
2019-03-06T22:32:21.218Z,11.70
2019-03-06T22:34:52.202Z,11.80
2019-03-06T22:37:22.010Z,11.80
2019-03-06T22:39:52.495Z,11.70
2019-03-06T22:42:22.511Z,11.80
2019-03-06T22:44:52.811Z,12.00
2019-03-06T22:47:23.548Z,11.90
2019-03-06T22:49:53.258Z,11.60
2019-03-06T22:52:24.073Z,11.40
2019-03-06T22:54:54.583Z,11.30
2019-03-06T22:57:25.018Z,11.00
2019-03-06T22:59:55.447Z,10.80
2019-03-06T23:02:26.824Z,10.60
2019-03-06T23:04:57.437Z,10.40
2019-03-06T23:07:26.853Z,10.30
2019-03-06T23:09:56.921Z,10.20
2019-03-06T23:12:27.027Z,10.00
2019-03-06T23:14:57.034Z,9.80
2019-03-06T23:17:27.807Z,9.60
2019-03-06T23:19:57.494Z,9.50
2019-03-06T23:22:27.612Z,9.40
2019-03-06T23:24:57.659Z,9.30
2019-03-06T23:27:27.835Z,9.20
2019-03-06T23:29:57.527Z,9.10
2019-03-06T23:32:27.915Z,8.90
2019-03-06T23:34:58.224Z,8.80
2019-03-06T23:37:29.015Z,8.80
2019-03-06T23:39:59.127Z,8.80
2019-03-06T23:42:29.653Z,9.00
2019-03-06T23:45:00.403Z,9.30
2019-03-06T23:47:30.520Z,9.40
2019-03-06T23:50:01.376Z,9.60
2019-03-06T23:52:35.857Z,9.60
2019-03-06T23:55:06.624Z,9.70
2019-03-06T23:57:37.422Z,10.00
